Time;durP1;ratioP1;P1;durP2;ratioP2;P2;SDS_P1;SDS_P2;PMS_P1;PMS_P2;Temp;Humidity;BMP_temperature;BMP_pressure;BME280_temperature;BME280_humidity;BME280_pressure;Samples;Min_cycle;Max_cycle;Signal;HPM_P1;HPM_P2
2021/12/31 00:01:25;;;;;;;53.70;40.67;;;;;;;;;;6119252;23;20855;-88
2021/12/31 00:03:52;;;;;;;53.50;39.95;;;;;;;;;;6118695;23;20832;-87
2021/12/31 00:06:20;;;;;;;50.85;38.60;;;;;;;;;;6118941;23;20382;-88
2021/12/31 00:08:47;;;;;;;50.00;38.10;;;;;;;;;;6118404;23;20375;-86
2021/12/31 00:11:14;;;;;;;48.65;37.08;;;;;;;;;;6119635;23;20429;-87
2021/12/31 00:13:41;;;;;;;47.88;36.88;;;;;;;;;;6118746;23;20852;-86
2021/12/31 00:16:08;;;;;;;51.97;38.25;;;;;;;;;;6119021;23;20370;-87
2021/12/31 00:18:35;;;;;;;47.80;36.63;;;;;;;;;;6119413;23;20872;-87
2021/12/31 00:21:03;;;;;;;48.40;36.88;;;;;;;;;;6118471;23;20714;-87
2021/12/31 00:23:32;;;;;;;48.78;36.58;;;;;;;;;;6119007;23;20457;-87
2021/12/31 00:25:59;;;;;;;45.90;35.80;;;;;;;;;;6118730;23;20848;-86
2021/12/31 00:28:26;;;;;;;46.22;35.05;;;;;;;;;;6119567;23;20371;-87
2021/12/31 00:30:54;;;;;;;44.53;34.33;;;;;;;;;;6118186;23;20383;-87
2021/12/31 00:33:22;;;;;;;44.85;34.28;;;;;;;;;;6119129;23;20406;-87
2021/12/31 00:35:48;;;;;;;45.30;34.58;;;;;;;;;;6118650;23;20844;-87
2021/12/31 00:38:16;;;;;;;46.63;34.72;;;;;;;;;;6118890;23;20390;-88
2021/12/31 00:40:44;;;;;;;43.33;34.13;;;;;;;;;;6118699;23;20423;-88
2021/12/31 00:43:12;;;;;;;44.10;33.75;;;;;;;;;;6118702;23;20359;-88
2021/12/31 00:45:41;;;;;;;42.90;33.53;;;;;;;;;;6117793;23;20485;-86
2021/12/31 00:48:09;;;;;;;44.08;34.25;;;;;;;;;;6118323;23;20367;-87
2021/12/31 00:50:36;;;;;;;44.97;35.80;;;;;;;;;;6118556;23;20430;-87
2021/12/31 00:53:03;;;;;;;44.28;34.53;;;;;;;;;;6118452;23;20363;-87
2021/12/31 00:55:30;;;;;;;43.33;34.90;;;;;;;;;;6118969;23;20378;-88
2021/12/31 00:57:58;;;;;;;41.78;32.88;;;;;;;;;;6118310;23;20386;-88
2021/12/31 01:00:25;;;;;;;42.08;32.78;;;;;;;;;;6118750;23;20375;-86
2021/12/31 01:02:52;;;;;;;43.05;32.95;;;;;;;;;;6119553;23;21219;-88
2021/12/31 01:05:19;;;;;;;42.95;32.47;;;;;;;;;;6118645;23;20406;-87
2021/12/31 01:07:46;;;;;;;38.22;30.58;;;;;;;;;;6117963;23;20860;-88
2021/12/31 01:10:19;;;;;;;38.92;30.95;;;;;;;;;;6118739;23;20712;-88
2021/12/31 01:12:46;;;;;;;41.15;32.80;;;;;;;;;;6118334;23;20733;-87
2021/12/31 01:15:21;;;;;;;42.10;33.15;;;;;;;;;;6118390;23;20868;-88
2021/12/31 01:20:33;;;;;;;47.03;36.73;;;;;;;;;;6118624;23;20859;-88
2021/12/31 01:22:59;;;;;;;46.38;35.22;;;;;;;;;;6118197;23;20367;-88
2021/12/31 01:25:26;;;;;;;46.60;35.47;;;;;;;;;;6118604;23;20745;-87
2021/12/31 01:27:53;;;;;;;49.08;34.45;;;;;;;;;;6118508;23;20445;-88
2021/12/31 01:30:22;;;;;;;45.13;33.45;;;;;;;;;;6119131;23;20374;-88
2021/12/31 01:32:49;;;;;;;46.42;33.05;;;;;;;;;;6118389;23;20433;-88
2021/12/31 01:35:16;;;;;;;43.58;33.47;;;;;;;;;;6118796;23;20370;-87
2021/12/31 01:37:43;;;;;;;43.00;32.17;;;;;;;;;;6117789;23;20378;-87
2021/12/31 01:40:11;;;;;;;45.00;33.67;;;;;;;;;;6119076;23;20371;-87
2021/12/31 01:42:38;;;;;;;43.58;32.97;;;;;;;;;;6118228;23;20371;-87
2021/12/31 01:45:09;;;;;;;44.83;33.35;;;;;;;;;;6118413;23;20461;-87
2021/12/31 01:47:55;;;;;;;46.85;33.63;;;;;;;;;;6118670;23;20434;-87
2021/12/31 01:50:23;;;;;;;43.38;33.70;;;;;;;;;;6118236;23;20374;-88
2021/12/31 01:52:50;;;;;;;41.72;32.08;;;;;;;;;;6118418;23;20367;-88
2021/12/31 01:55:17;;;;;;;42.13;33.07;;;;;;;;;;6092748;23;20481;-87
2021/12/31 01:57:45;;;;;;;44.25;33.35;;;;;;;;;;6118188;23;20725;-87
2021/12/31 02:00:13;;;;;;;40.92;31.40;;;;;;;;;;6118036;23;20375;-87
2021/12/31 02:02:43;;;;;;;41.50;31.30;;;;;;;;;;6116584;23;20379;-87
2021/12/31 02:05:11;;;;;;;42.70;31.25;;;;;;;;;;6116549;23;20399;-87
2021/12/31 02:07:38;;;;;;;39.53;30.33;;;;;;;;;;6117560;23;20847;-87
2021/12/31 02:10:07;;;;;;;37.17;29.65;;;;;;;;;;6117345;23;20363;-87
2021/12/31 02:12:35;;;;;;;37.53;29.85;;;;;;;;;;6116973;23;20685;-87
2021/12/31 02:15:04;;;;;;;38.60;30.13;;;;;;;;;;6116580;23;20371;-88
2021/12/31 02:17:31;;;;;;;36.90;28.83;;;;;;;;;;6117207;23;21011;-86
2021/12/31 02:20:03;;;;;;;31.83;25.10;;;;;;;;;;6116808;23;20391;-84
2021/12/31 02:22:31;;;;;;;28.83;23.67;;;;;;;;;;6117950;23;20379;-87
2021/12/31 02:25:00;;;;;;;28.80;23.10;;;;;;;;;;6116951;23;20378;-87
2021/12/31 02:27:28;;;;;;;30.65;24.63;;;;;;;;;;6118719;23;20422;-87
2021/12/31 02:29:55;;;;;;;29.73;24.17;;;;;;;;;;6118329;23;20659;-87
2021/12/31 02:32:21;;;;;;;27.02;23.02;;;;;;;;;;6118993;23;20375;-87
2021/12/31 02:34:49;;;;;;;27.73;22.98;;;;;;;;;;6118240;23;20851;-87
2021/12/31 02:37:17;;;;;;;29.85;24.10;;;;;;;;;;6118672;23;20374;-87
2021/12/31 02:39:44;;;;;;;27.42;23.08;;;;;;;;;;6092511;23;20389;-87
2021/12/31 02:42:12;;;;;;;27.45;22.85;;;;;;;;;;6118115;23;20854;-87
2021/12/31 02:44:40;;;;;;;28.48;22.98;;;;;;;;;;6119554;23;21128;-87
2021/12/31 02:47:08;;;;;;;26.98;22.55;;;;;;;;;;6120773;23;20379;-87
2021/12/31 02:49:39;;;;;;;26.70;22.25;;;;;;;;;;6139520;23;20367;-87
2021/12/31 02:52:08;;;;;;;26.23;22.45;;;;;;;;;;6132819;23;20379;-87
2021/12/31 02:54:41;;;;;;;26.42;21.75;;;;;;;;;;6113498;23;21014;-86
2021/12/31 02:57:08;;;;;;;24.75;21.60;;;;;;;;;;6114807;23;20871;-87
2021/12/31 02:59:35;;;;;;;25.50;21.48;;;;;;;;;;6117145;23;20906;-87
2021/12/31 03:02:06;;;;;;;27.63;21.93;;;;;;;;;;6117372;23;20471;-87
2021/12/31 03:04:36;;;;;;;25.63;21.80;;;;;;;;;;6118189;23;20433;-87
2021/12/31 03:07:05;;;;;;;27.05;21.65;;;;;;;;;;6117723;23;20462;-87
2021/12/31 03:09:34;;;;;;;32.42;21.30;;;;;;;;;;6118057;23;20402;-87
2021/12/31 03:12:03;;;;;;;27.05;22.08;;;;;;;;;;6117626;23;20437;-87
2021/12/31 03:14:32;;;;;;;36.33;21.48;;;;;;;;;;6092734;23;20741;-87
2021/12/31 03:16:59;;;;;;;45.22;22.02;;;;;;;;;;6119681;23;20487;-88
2021/12/31 03:19:27;;;;;;;41.87;22.67;;;;;;;;;;6120044;23;20395;-88
2021/12/31 03:21:54;;;;;;;31.70;22.80;;;;;;;;;;6094556;23;20382;-86
2021/12/31 03:24:20;;;;;;;37.38;22.60;;;;;;;;;;6119972;23;20367;-87
2021/12/31 03:26:48;;;;;;;35.55;21.52;;;;;;;;;;6119102;23;20374;-87
2021/12/31 03:29:16;;;;;;;30.92;21.98;;;;;;;;;;6120481;23;20371;-86
2021/12/31 03:31:43;;;;;;;39.70;22.73;;;;;;;;;;6094356;23;20375;-87
2021/12/31 03:34:13;;;;;;;28.92;22.05;;;;;;;;;;6119593;23;20886;-87
2021/12/31 03:36:40;;;;;;;27.55;21.48;;;;;;;;;;6119824;23;20868;-86
2021/12/31 03:39:07;;;;;;;57.83;21.25;;;;;;;;;;6119315;23;20378;-87
2021/12/31 03:41:34;;;;;;;29.58;20.30;;;;;;;;;;6119446;23;20371;-87
2021/12/31 03:44:01;;;;;;;26.25;19.77;;;;;;;;;;6118962;23;20363;-87
2021/12/31 03:46:29;;;;;;;25.23;19.88;;;;;;;;;;6119578;23;20380;-87
2021/12/31 03:48:56;;;;;;;24.00;19.42;;;;;;;;;;6119466;23;20716;-88
2021/12/31 03:51:23;;;;;;;23.60;19.20;;;;;;;;;;6120007;23;20414;-87
2021/12/31 03:53:50;;;;;;;23.55;19.20;;;;;;;;;;6119547;23;20453;-87
2021/12/31 03:56:20;;;;;;;22.85;18.58;;;;;;;;;;6120049;23;20748;-86
2021/12/31 03:58:47;;;;;;;23.00;18.90;;;;;;;;;;6119128;23;20442;-87
2021/12/31 04:01:14;;;;;;;21.23;18.17;;;;;;;;;;6120117;23;20851;-86
2021/12/31 04:03:42;;;;;;;23.55;19.33;;;;;;;;;;6119901;23;20363;-88
2021/12/31 04:06:09;;;;;;;22.80;18.97;;;;;;;;;;6119467;23;20371;-86
2021/12/31 04:08:35;;;;;;;22.27;19.00;;;;;;;;;;6119502;23;20374;-87
2021/12/31 04:11:02;;;;;;;22.67;18.92;;;;;;;;;;6119124;23;20390;-87
2021/12/31 04:13:29;;;;;;;23.77;19.42;;;;;;;;;;6120251;23;20371;-87
2021/12/31 04:15:56;;;;;;;21.95;18.98;;;;;;;;;;6118240;23;20363;-87
2021/12/31 04:18:25;;;;;;;21.15;18.42;;;;;;;;;;6119503;23;20650;-87
2021/12/31 04:20:56;;;;;;;21.90;18.60;;;;;;;;;;6119284;23;20417;-87
2021/12/31 04:23:28;;;;;;;20.30;18.05;;;;;;;;;;6120254;23;20371;-88
2021/12/31 04:25:57;;;;;;;22.27;19.05;;;;;;;;;;6118969;23;20379;-87
2021/12/31 04:28:24;;;;;;;22.98;18.92;;;;;;;;;;6119788;23;20367;-87
2021/12/31 04:30:51;;;;;;;22.70;19.02;;;;;;;;;;6119277;23;20871;-87
2021/12/31 04:33:18;;;;;;;21.30;18.02;;;;;;;;;;6119572;23;20367;-87
2021/12/31 04:35:45;;;;;;;21.83;18.90;;;;;;;;;;6119443;23;20454;-88
2021/12/31 04:38:14;;;;;;;21.63;18.67;;;;;;;;;;6119244;23;20374;-87
2021/12/31 04:40:41;;;;;;;23.38;20.02;;;;;;;;;;6118560;23;21207;-87
2021/12/31 04:43:08;;;;;;;21.88;19.05;;;;;;;;;;6119323;23;20367;-88
2021/12/31 04:45:34;;;;;;;23.48;19.92;;;;;;;;;;6119075;23;20875;-88
2021/12/31 04:48:02;;;;;;;22.98;20.13;;;;;;;;;;6118845;23;20382;-87
2021/12/31 04:50:29;;;;;;;23.80;19.45;;;;;;;;;;6119199;23;20374;-87
2021/12/31 04:52:56;;;;;;;21.73;17.98;;;;;;;;;;6119202;23;21171;-86
2021/12/31 04:55:24;;;;;;;22.60;18.60;;;;;;;;;;6118967;23;20420;-88
2021/12/31 04:57:51;;;;;;;22.00;18.63;;;;;;;;;;6118759;23;20383;-88
2021/12/31 05:00:18;;;;;;;20.88;18.05;;;;;;;;;;6118693;23;20395;-87
2021/12/31 05:02:45;;;;;;;21.55;18.40;;;;;;;;;;6118216;23;20363;-88
2021/12/31 05:05:12;;;;;;;24.77;21.27;;;;;;;;;;6117630;23;20379;-87
2021/12/31 05:07:39;;;;;;;22.77;19.45;;;;;;;;;;6117385;23;20370;-87
2021/12/31 05:10:07;;;;;;;22.80;19.50;;;;;;;;;;6118564;23;20367;-87
2021/12/31 05:12:37;;;;;;;24.83;20.25;;;;;;;;;;6118626;23;20379;-88
2021/12/31 05:15:07;;;;;;;23.17;19.42;;;;;;;;;;6118580;23;20421;-88
2021/12/31 05:17:34;;;;;;;22.70;19.15;;;;;;;;;;6119248;23;20688;-87
2021/12/31 05:20:02;;;;;;;23.83;20.05;;;;;;;;;;6118608;23;20391;-87
2021/12/31 05:22:28;;;;;;;23.85;19.90;;;;;;;;;;6119081;23;20666;-87
2021/12/31 05:24:55;;;;;;;24.48;20.25;;;;;;;;;;6118722;23;20855;-88
2021/12/31 05:27:22;;;;;;;25.75;21.00;;;;;;;;;;6119921;23;20418;-88
2021/12/31 05:29:50;;;;;;;25.98;21.00;;;;;;;;;;6118542;23;20375;-87
2021/12/31 05:32:17;;;;;;;25.58;21.40;;;;;;;;;;6119249;23;20367;-88
2021/12/31 05:34:44;;;;;;;27.45;22.38;;;;;;;;;;6119395;23;20414;-87
2021/12/31 05:37:11;;;;;;;27.30;22.07;;;;;;;;;;6121260;23;20426;-87
2021/12/31 05:39:38;;;;;;;26.80;22.42;;;;;;;;;;6126168;23;20407;-87
2021/12/31 05:42:06;;;;;;;27.25;22.33;;;;;;;;;;6143270;23;20382;-87
2021/12/31 05:44:33;;;;;;;27.90;22.90;;;;;;;;;;6117712;23;20378;-87
2021/12/31 05:47:01;;;;;;;30.65;23.73;;;;;;;;;;6117842;23;20367;-87
2021/12/31 05:49:28;;;;;;;32.05;24.73;;;;;;;;;;6117919;23;20366;-87
2021/12/31 05:51:55;;;;;;;29.85;25.23;;;;;;;;;;6117533;23;20382;-87
2021/12/31 05:54:22;;;;;;;32.05;25.10;;;;;;;;;;6117785;23;20627;-88
2021/12/31 05:56:49;;;;;;;30.15;25.35;;;;;;;;;;6118197;23;20665;-87
2021/12/31 05:59:16;;;;;;;32.90;26.55;;;;;;;;;;6117681;23;20410;-87
2021/12/31 06:01:43;;;;;;;32.17;25.83;;;;;;;;;;6117473;23;20386;-87
2021/12/31 06:04:11;;;;;;;31.50;25.13;;;;;;;;;;6117863;23;20378;-86
2021/12/31 06:06:38;;;;;;;33.38;25.98;;;;;;;;;;6117516;23;20375;-87
2021/12/31 06:09:07;;;;;;;31.38;24.73;;;;;;;;;;6118557;23;20692;-87
2021/12/31 06:11:34;;;;;;;34.42;26.10;;;;;;;;;;6117827;23;20359;-86
2021/12/31 06:14:04;;;;;;;35.05;27.13;;;;;;;;;;6117264;23;20370;-87
2021/12/31 06:16:36;;;;;;;36.17;27.48;;;;;;;;;;6118073;23;20377;-86
2021/12/31 06:19:03;;;;;;;31.40;25.10;;;;;;;;;;6117098;23;20382;-87
2021/12/31 06:21:33;;;;;;;31.17;25.00;;;;;;;;;;6117337;23;20395;-87
2021/12/31 06:24:00;;;;;;;29.80;24.10;;;;;;;;;;6117872;23;20461;-88
2021/12/31 06:26:27;;;;;;;28.50;23.67;;;;;;;;;;6117324;23;20445;-87
2021/12/31 06:28:54;;;;;;;30.02;24.25;;;;;;;;;;6117000;23;20370;-88
2021/12/31 06:31:21;;;;;;;30.43;23.37;;;;;;;;;;6117953;23;20445;-87
2021/12/31 06:33:48;;;;;;;29.58;24.27;;;;;;;;;;6117587;23;20391;-88
2021/12/31 06:36:15;;;;;;;29.38;24.23;;;;;;;;;;6117373;23;20374;-88
2021/12/31 06:38:44;;;;;;;31.08;24.02;;;;;;;;;;6117170;23;20363;-87
2021/12/31 06:41:11;;;;;;;29.80;23.67;;;;;;;;;;6117766;23;20737;-87
2021/12/31 06:43:38;;;;;;;27.53;23.13;;;;;;;;;;6117285;23;20382;-87
2021/12/31 06:46:04;;;;;;;27.30;22.38;;;;;;;;;;6116709;23;20375;-88
2021/12/31 06:48:31;;;;;;;28.60;22.27;;;;;;;;;;6117819;23;21231;-88
2021/12/31 06:50:58;;;;;;;25.55;21.45;;;;;;;;;;6117382;23;21167;-90
2021/12/31 06:53:25;;;;;;;26.92;21.60;;;;;;;;;;6120048;23;20379;-87
2021/12/31 06:55:54;;;;;;;25.38;20.50;;;;;;;;;;6119388;23;20865;-91
2021/12/31 06:58:20;;;;;;;23.98;19.88;;;;;;;;;;6118007;23;20378;-86
2021/12/31 07:00:47;;;;;;;27.33;21.17;;;;;;;;;;6113234;23;20394;-85
2021/12/31 07:03:14;;;;;;;29.55;23.40;;;;;;;;;;6116335;23;20367;-85
2021/12/31 07:05:42;;;;;;;27.77;22.33;;;;;;;;;;6116620;23;20375;-84
2021/12/31 07:08:09;;;;;;;27.52;22.58;;;;;;;;;;6117247;23;20422;-85
2021/12/31 07:10:36;;;;;;;30.38;22.80;;;;;;;;;;6117318;23;20363;-85
2021/12/31 07:13:10;;;;;;;32.05;23.83;;;;;;;;;;6116730;23;20442;-85
2021/12/31 07:15:39;;;;;;;30.90;23.75;;;;;;;;;;6115683;23;20831;-85
2021/12/31 07:18:06;;;;;;;31.90;24.08;;;;;;;;;;6117186;23;20374;-84
2021/12/31 07:20:33;;;;;;;32.27;24.00;;;;;;;;;;6116457;23;20391;-84
2021/12/31 07:23:04;;;;;;;32.00;24.75;;;;;;;;;;6117134;23;20477;-84
2021/12/31 07:25:31;;;;;;;32.83;24.55;;;;;;;;;;6117013;23;20438;-84
2021/12/31 07:27:58;;;;;;;32.87;24.87;;;;;;;;;;6116999;23;20386;-84
2021/12/31 07:30:27;;;;;;;31.13;23.33;;;;;;;;;;6117284;23;20430;-84
2021/12/31 07:32:53;;;;;;;32.10;23.67;;;;;;;;;;6116679;23;20367;-85
2021/12/31 07:35:21;;;;;;;37.37;25.97;;;;;;;;;;6117335;23;20371;-85
2021/12/31 07:37:47;;;;;;;38.00;26.43;;;;;;;;;;6115742;23;20464;-84
2021/12/31 07:40:24;;;;;;;34.22;26.02;;;;;;;;;;6116753;23;20390;-84
2021/12/31 07:42:51;;;;;;;35.22;24.83;;;;;;;;;;6116579;23;20375;-87
2021/12/31 07:45:18;;;;;;;29.50;22.30;;;;;;;;;;6119682;23;20375;-90
2021/12/31 07:47:46;;;;;;;26.00;20.95;;;;;;;;;;6120253;23;20386;-91
2021/12/31 07:50:14;;;;;;;25.83;19.83;;;;;;;;;;6120006;23;20375;-89
2021/12/31 07:52:41;;;;;;;24.30;20.08;;;;;;;;;;6119861;23;20374;-91
2021/12/31 07:55:10;;;;;;;23.98;19.33;;;;;;;;;;6094323;23;20371;-90
2021/12/31 07:57:37;;;;;;;23.88;19.85;;;;;;;;;;6093967;23;20379;-88
2021/12/31 08:00:06;;;;;;;23.70;20.08;;;;;;;;;;6119273;23;20390;-89
2021/12/31 08:02:33;;;;;;;25.70;20.55;;;;;;;;;;6120626;23;20375;-90
2021/12/31 08:05:02;;;;;;;27.45;21.10;;;;;;;;;;6121089;23;20378;-89
2021/12/31 08:07:29;;;;;;;27.70;22.55;;;;;;;;;;6121370;23;20382;-90
2021/12/31 08:09:55;;;;;;;25.37;22.27;;;;;;;;;;6121345;23;20378;-90
2021/12/31 08:12:22;;;;;;;28.13;21.90;;;;;;;;;;6121759;23;20390;-89
2021/12/31 08:14:50;;;;;;;33.63;24.17;;;;;;;;;;6121215;23;20379;-90
2021/12/31 08:17:17;;;;;;;35.17;26.13;;;;;;;;;;6121986;23;20627;-89
2021/12/31 08:19:44;;;;;;;31.58;25.08;;;;;;;;;;6121819;23;20375;-90
2021/12/31 08:22:12;;;;;;;30.00;24.33;;;;;;;;;;6122202;23;20889;-90
2021/12/31 08:24:39;;;;;;;29.05;25.08;;;;;;;;;;6122466;23;20378;-90
2021/12/31 08:27:06;;;;;;;33.03;26.05;;;;;;;;;;6122301;23;20378;-90
2021/12/31 08:29:33;;;;;;;31.63;26.05;;;;;;;;;;6124976;23;20382;-90
2021/12/31 08:32:00;;;;;;;30.00;25.08;;;;;;;;;;6130285;23;20390;-90
2021/12/31 08:34:27;;;;;;;28.93;24.90;;;;;;;;;;6145887;23;20389;-90
2021/12/31 08:36:53;;;;;;;32.42;26.65;;;;;;;;;;6128145;23;20378;-90
2021/12/31 08:39:22;;;;;;;32.50;25.45;;;;;;;;;;6121874;23;20383;-90
2021/12/31 08:41:49;;;;;;;29.90;24.73;;;;;;;;;;6120796;23;20466;-90
2021/12/31 08:44:16;;;;;;;32.00;24.58;;;;;;;;;;6121402;23;20878;-90
2021/12/31 08:46:44;;;;;;;31.40;25.37;;;;;;;;;;6121432;23;20486;-90
2021/12/31 08:49:11;;;;;;;33.08;26.10;;;;;;;;;;6122044;23;20382;-90
2021/12/31 08:51:38;;;;;;;32.72;26.67;;;;;;;;;;6121789;23;20378;-89
2021/12/31 08:54:05;;;;;;;31.38;24.88;;;;;;;;;;6122090;23;21327;-90
2021/12/31 08:56:34;;;;;;;37.05;29.73;;;;;;;;;;6121732;23;20374;-90
2021/12/31 08:59:03;;;;;;;35.55;28.73;;;;;;;;;;6121192;23;20592;-90
2021/12/31 09:01:30;;;;;;;33.08;26.02;;;;;;;;;;6121392;23;20420;-90
2021/12/31 09:03:56;;;;;;;29.90;25.33;;;;;;;;;;6120741;23;20397;-90
2021/12/31 09:06:23;;;;;;;32.45;27.00;;;;;;;;;;6121087;23;20752;-90
2021/12/31 09:08:50;;;;;;;32.27;27.37;;;;;;;;;;6120889;23;20416;-90
2021/12/31 09:11:17;;;;;;;31.98;27.88;;;;;;;;;;6121455;23;20386;-90
2021/12/31 09:13:47;;;;;;;31.02;25.60;;;;;;;;;;6120724;23;20703;-89
2021/12/31 09:16:14;;;;;;;31.15;25.65;;;;;;;;;;6121546;23;20378;-90
2021/12/31 09:18:41;;;;;;;29.75;25.73;;;;;;;;;;6117103;23;21233;-87
2021/12/31 09:21:08;;;;;;;30.20;26.25;;;;;;;;;;6118950;23;20383;-86
2021/12/31 09:23:35;;;;;;;31.02;27.13;;;;;;;;;;6119543;23;20375;-89
2021/12/31 09:26:02;;;;;;;35.37;27.17;;;;;;;;;;6120447;23;20378;-89
2021/12/31 09:28:29;;;;;;;30.58;25.80;;;;;;;;;;6119986;23;20374;-89
2021/12/31 09:31:00;;;;;;;33.53;27.98;;;;;;;;;;6119971;23;20379;-89
2021/12/31 09:33:28;;;;;;;33.50;29.02;;;;;;;;;;6120002;23;20688;-89
2021/12/31 09:35:55;;;;;;;32.58;27.67;;;;;;;;;;6120140;23;20375;-90
2021/12/31 09:38:22;;;;;;;34.72;28.33;;;;;;;;;;6119610;23;20375;-89
2021/12/31 09:40:49;;;;;;;33.75;28.40;;;;;;;;;;6120146;23;20867;-90
2021/12/31 09:43:16;;;;;;;38.38;29.95;;;;;;;;;;6120353;23;20386;-89
2021/12/31 09:45:45;;;;;;;34.35;29.70;;;;;;;;;;6119755;23;20927;-89
2021/12/31 09:48:16;;;;;;;32.28;27.95;;;;;;;;;;6120046;23;20375;-87
2021/12/31 09:50:46;;;;;;;33.07;28.20;;;;;;;;;;6115886;23;20717;-87
2021/12/31 09:53:15;;;;;;;34.13;28.65;;;;;;;;;;6119086;23;20391;-88
2021/12/31 09:55:44;;;;;;;32.55;27.83;;;;;;;;;;6118265;23;20414;-84
2021/12/31 09:58:13;;;;;;;35.90;28.77;;;;;;;;;;6115196;23;20422;-86
2021/12/31 10:00:47;;;;;;;33.13;27.93;;;;;;;;;;6115841;23;20761;-87
2021/12/31 10:03:17;;;;;;;34.90;28.60;;;;;;;;;;6117862;23;21145;-85
2021/12/31 10:05:48;;;;;;;36.13;29.67;;;;;;;;;;6116680;23;20478;-86
2021/12/31 10:08:17;;;;;;;37.17;30.02;;;;;;;;;;6117044;23;20697;-85
2021/12/31 10:10:44;;;;;;;38.03;30.80;;;;;;;;;;6116734;23;20371;-85
2021/12/31 10:13:11;;;;;;;38.33;31.85;;;;;;;;;;6116537;23;20363;-85
2021/12/31 10:15:41;;;;;;;36.13;29.67;;;;;;;;;;6114012;23;21106;-85
2021/12/31 10:18:13;;;;;;;39.75;32.22;;;;;;;;;;6091316;23;20764;-85
2021/12/31 10:20:51;;;;;;;44.15;32.97;;;;;;;;;;6115495;23;20378;-87
2021/12/31 10:23:20;;;;;;;42.17;33.45;;;;;;;;;;6116791;23;20941;-86
2021/12/31 10:25:48;;;;;;;40.42;32.47;;;;;;;;;;6116189;23;20441;-85
2021/12/31 10:28:18;;;;;;;39.50;31.30;;;;;;;;;;6117258;23;20685;-86
2021/12/31 10:30:45;;;;;;;37.53;31.65;;;;;;;;;;6115982;23;20381;-86
2021/12/31 10:33:13;;;;;;;39.10;31.05;;;;;;;;;;6117523;23;21052;-85
2021/12/31 10:35:42;;;;;;;36.70;29.77;;;;;;;;;;6118016;23;20449;-86
2021/12/31 10:38:12;;;;;;;37.08;30.15;;;;;;;;;;6117743;23;20439;-86
2021/12/31 10:40:43;;;;;;;35.75;29.95;;;;;;;;;;6117406;23;20883;-83
2021/12/31 10:43:18;;;;;;;35.85;29.92;;;;;;;;;;6117508;23;20375;-85
2021/12/31 10:45:56;;;;;;;35.42;30.00;;;;;;;;;;6116527;23;20375;-85
2021/12/31 10:48:38;;;;;;;34.88;29.05;;;;;;;;;;6118255;23;20849;-85
2021/12/31 10:51:05;;;;;;;35.58;29.63;;;;;;;;;;6117984;23;20426;-85
2021/12/31 10:53:33;;;;;;;30.83;27.08;;;;;;;;;;6117109;23;20378;-85
2021/12/31 10:56:07;;;;;;;32.30;27.23;;;;;;;;;;6117419;23;20377;-85
2021/12/31 10:58:35;;;;;;;30.88;27.23;;;;;;;;;;6118045;23;20378;-85
2021/12/31 11:01:05;;;;;;;29.80;26.27;;;;;;;;;;6116224;23;20379;-86
2021/12/31 11:03:33;;;;;;;30.58;26.60;;;;;;;;;;6117623;23;20375;-85
2021/12/31 11:06:01;;;;;;;32.40;27.20;;;;;;;;;;6117922;23;20379;-85
2021/12/31 11:08:29;;;;;;;34.22;28.15;;;;;;;;;;6118052;23;20382;-85
2021/12/31 11:10:58;;;;;;;30.73;26.98;;;;;;;;;;6118203;23;20374;-84
2021/12/31 11:13:30;;;;;;;30.98;26.10;;;;;;;;;;6118309;23;20363;-85
2021/12/31 11:15:58;;;;;;;30.98;25.63;;;;;;;;;;6112559;23;20378;-84
2021/12/31 11:18:26;;;;;;;32.00;26.27;;;;;;;;;;6117557;23;20383;-84
2021/12/31 11:20:57;;;;;;;33.13;26.38;;;;;;;;;;6117494;23;20386;-85
2021/12/31 11:23:25;;;;;;;33.42;27.35;;;;;;;;;;6116827;23;20465;-85
2021/12/31 11:25:54;;;;;;;32.75;26.88;;;;;;;;;;6116618;23;20426;-84
2021/12/31 11:28:28;;;;;;;32.53;26.92;;;;;;;;;;6115994;23;20383;-84
2021/12/31 11:30:57;;;;;;;31.55;26.77;;;;;;;;;;6116186;23;20359;-84
2021/12/31 11:33:30;;;;;;;34.47;29.33;;;;;;;;;;6117553;23;20383;-83
2021/12/31 11:36:01;;;;;;;36.60;28.70;;;;;;;;;;6118655;23;20367;-83
2021/12/31 11:38:47;;;;;;;40.10;32.17;;;;;;;;;;6118762;23;20383;-83
2021/12/31 11:41:18;;;;;;;35.47;29.73;;;;;;;;;;6119188;23;20422;-82
2021/12/31 11:44:05;;;;;;;39.85;31.20;;;;;;;;;;6117389;23;20378;-85
2021/12/31 11:46:35;;;;;;;34.72;29.42;;;;;;;;;;6119823;23;20378;-84
2021/12/31 11:49:04;;;;;;;33.80;28.50;;;;;;;;;;6123100;23;20387;-82
2021/12/31 11:51:35;;;;;;;33.90;29.17;;;;;;;;;;6127636;23;20446;-83
2021/12/31 11:54:19;;;;;;;35.50;30.02;;;;;;;;;;6121664;23;20402;-84
2021/12/31 11:57:00;;;;;;;35.40;30.33;;;;;;;;;;6118338;23;20450;-84
2021/12/31 11:59:31;;;;;;;37.10;30.38;;;;;;;;;;6117946;23;20374;-84
2021/12/31 12:02:15;;;;;;;35.17;29.52;;;;;;;;;;6119048;23;20890;-84
2021/12/31 12:04:44;;;;;;;34.77;29.53;;;;;;;;;;6118426;23;20383;-84
2021/12/31 12:07:31;;;;;;;34.80;29.05;;;;;;;;;;6118389;23;20862;-83
2021/12/31 12:10:24;;;;;;;35.92;30.23;;;;;;;;;;6118253;23;20391;-82
2021/12/31 12:12:53;;;;;;;39.78;33.88;;;;;;;;;;6117534;23;20688;-84
2021/12/31 12:15:33;;;;;;;36.50;31.23;;;;;;;;;;6117810;23;20501;-84
2021/12/31 12:18:03;;;;;;;33.25;29.50;;;;;;;;;;6118433;23;20379;-84
2021/12/31 12:20:45;;;;;;;38.85;31.65;;;;;;;;;;6117653;23;20386;-84
2021/12/31 12:23:18;;;;;;;38.43;33.27;;;;;;;;;;6092357;23;20475;-83
2021/12/31 12:25:45;;;;;;;36.78;31.02;;;;;;;;;;6117972;23;20433;-84
2021/12/31 12:28:15;;;;;;;41.08;34.05;;;;;;;;;;6116625;23;20403;-84
2021/12/31 12:30:49;;;;;;;39.58;32.85;;;;;;;;;;6118046;23;20378;-84
2021/12/31 12:33:23;;;;;;;41.05;33.00;;;;;;;;;;6118252;23;20419;-84
2021/12/31 12:35:52;;;;;;;39.47;32.95;;;;;;;;;;6117152;23;20494;-83
2021/12/31 12:38:22;;;;;;;38.25;32.58;;;;;;;;;;6118544;23;20395;-83
2021/12/31 12:40:52;;;;;;;39.37;31.37;;;;;;;;;;6117441;23;20567;-85
2021/12/31 12:43:22;;;;;;;34.65;30.10;;;;;;;;;;6116166;23;20473;-85
2021/12/31 12:45:55;;;;;;;36.90;31.00;;;;;;;;;;6116696;23;20480;-84
2021/12/31 12:48:38;;;;;;;31.98;28.48;;;;;;;;;;6117355;23;25105;-84
2021/12/31 12:51:09;;;;;;;31.90;27.90;;;;;;;;;;6114400;23;20382;-83
2021/12/31 12:53:42;;;;;;;31.40;27.95;;;;;;;;;;6116816;23;20353;-83
2021/12/31 12:56:13;;;;;;;30.13;26.58;;;;;;;;;;6117382;23;20669;-85
2021/12/31 12:58:48;;;;;;;31.60;26.73;;;;;;;;;;6116265;23;20426;-86
2021/12/31 13:01:31;;;;;;;34.00;28.85;;;;;;;;;;6116344;23;25068;-86
2021/12/31 13:04:02;;;;;;;33.42;29.20;;;;;;;;;;6116654;23;20465;-85
2021/12/31 13:06:34;;;;;;;32.70;28.63;;;;;;;;;;6117899;23;20379;-84
2021/12/31 13:09:13;;;;;;;38.45;33.83;;;;;;;;;;6118088;23;20397;-85
2021/12/31 13:11:46;;;;;;;38.72;33.83;;;;;;;;;;6118193;23;25115;-85
2021/12/31 13:14:19;;;;;;;32.38;27.55;;;;;;;;;;6117742;23;20460;-85
2021/12/31 13:16:53;;;;;;;30.67;27.10;;;;;;;;;;6117356;23;20382;-85
2021/12/31 13:19:33;;;;;;;30.38;26.92;;;;;;;;;;6117931;23;20383;-85
2021/12/31 13:22:04;;;;;;;30.40;26.67;;;;;;;;;;6117464;23;20387;-86
2021/12/31 13:24:35;;;;;;;29.75;26.25;;;;;;;;;;6118208;23;20372;-86
2021/12/31 13:27:08;;;;;;;29.98;25.63;;;;;;;;;;6118062;23;20421;-86
2021/12/31 13:29:41;;;;;;;29.95;25.70;;;;;;;;;;6117733;23;20377;-85
2021/12/31 13:32:19;;;;;;;27.63;24.63;;;;;;;;;;6117932;23;20359;-86
2021/12/31 13:34:50;;;;;;;28.30;25.38;;;;;;;;;;6117634;23;20367;-86
2021/12/31 13:37:30;;;;;;;27.83;25.03;;;;;;;;;;6117514;23;20888;-86
2021/12/31 13:40:12;;;;;;;28.83;25.90;;;;;;;;;;6117459;23;20659;-86
2021/12/31 13:42:44;;;;;;;29.30;26.20;;;;;;;;;;6116530;23;20450;-86
2021/12/31 13:45:25;;;;;;;28.98;26.08;;;;;;;;;;6115940;23;20366;-86
2021/12/31 13:47:56;;;;;;;28.65;25.77;;;;;;;;;;6116892;23;20409;-86
2021/12/31 13:50:33;;;;;;;27.92;25.02;;;;;;;;;;6116413;23;20378;-86
2021/12/31 13:53:03;;;;;;;28.85;25.90;;;;;;;;;;6116283;23;20371;-86
2021/12/31 13:55:35;;;;;;;27.90;24.95;;;;;;;;;;6111355;23;20382;-86
2021/12/31 13:58:04;;;;;;;28.52;25.42;;;;;;;;;;6115923;23;20446;-86
2021/12/31 14:00:37;;;;;;;28.08;25.17;;;;;;;;;;6116179;23;20378;-86
2021/12/31 14:03:17;;;;;;;28.83;25.73;;;;;;;;;;6089919;23;20418;-87
2021/12/31 14:05:51;;;;;;;26.67;24.05;;;;;;;;;;6114325;23;20382;-82
2021/12/31 14:08:41;;;;;;;26.38;23.67;;;;;;;;;;6115073;23;20399;-86
2021/12/31 14:11:12;;;;;;;26.13;23.52;;;;;;;;;;6116896;23;20375;-87
2021/12/31 14:13:45;;;;;;;27.30;24.35;;;;;;;;;;6117170;23;20421;-87
2021/12/31 14:16:16;;;;;;;27.17;24.42;;;;;;;;;;6117027;23;20363;-87
2021/12/31 14:18:45;;;;;;;26.05;23.55;;;;;;;;;;6116630;23;20386;-87
2021/12/31 14:21:14;;;;;;;27.05;24.45;;;;;;;;;;6116077;23;20374;-86
2021/12/31 14:23:46;;;;;;;28.20;25.33;;;;;;;;;;6116913;23;20389;-86
2021/12/31 14:26:13;;;;;;;28.80;25.80;;;;;;;;;;6116801;23;20410;-87
2021/12/31 14:28:40;;;;;;;29.02;26.02;;;;;;;;;;6116375;23;20378;-87
2021/12/31 14:31:08;;;;;;;29.60;26.50;;;;;;;;;;6115410;23;20421;-87